sensor_id;sensor_type;location;lat;lon;timestamp;temperature;humidity
8103;DHT22;4094;49.948;11.574;2023-11-22T00:00:20;8.30;63.50
8103;DHT22;4094;49.948;11.574;2023-11-22T00:02:51;8.30;63.70
8103;DHT22;4094;49.948;11.574;2023-11-22T00:05:21;8.30;63.50
8103;DHT22;4094;49.948;11.574;2023-11-22T00:07:51;8.30;63.40
8103;DHT22;4094;49.948;11.574;2023-11-22T00:10:20;8.20;63.40
8103;DHT22;4094;49.948;11.574;2023-11-22T00:12:49;8.20;63.30
8103;DHT22;4094;49.948;11.574;2023-11-22T00:15:19;8.20;63.60
8103;DHT22;4094;49.948;11.574;2023-11-22T00:17:48;8.20;63.60
8103;DHT22;4094;49.948;11.574;2023-11-22T00:20:20;8.20;64.40
8103;DHT22;4094;49.948;11.574;2023-11-22T00:22:50;8.10;64.90
8103;DHT22;4094;49.948;11.574;2023-11-22T00:25:19;8.10;64.10
8103;DHT22;4094;49.948;11.574;2023-11-22T00:27:48;8.10;64.20
8103;DHT22;4094;49.948;11.574;2023-11-22T00:30:19;8.10;64.20
8103;DHT22;4094;49.948;11.574;2023-11-22T00:32:48;8.10;64.40
8103;DHT22;4094;49.948;11.574;2023-11-22T00:35:17;8.10;64.60
8103;DHT22;4094;49.948;11.574;2023-11-22T00:37:48;8.10;64.70
8103;DHT22;4094;49.948;11.574;2023-11-22T00:40:17;8.00;65.00
8103;DHT22;4094;49.948;11.574;2023-11-22T00:42:46;8.00;65.00
8103;DHT22;4094;49.948;11.574;2023-11-22T00:45:15;8.00;65.10
8103;DHT22;4094;49.948;11.574;2023-11-22T00:47:46;8.00;65.20
8103;DHT22;4094;49.948;11.574;2023-11-22T00:50:15;8.00;65.30
8103;DHT22;4094;49.948;11.574;2023-11-22T00:52:49;8.00;65.30
8103;DHT22;4094;49.948;11.574;2023-11-22T00:55:19;8.00;65.50
8103;DHT22;4094;49.948;11.574;2023-11-22T00:57:49;7.90;65.60
8103;DHT22;4094;49.948;11.574;2023-11-22T01:00:19;7.90;65.50
8103;DHT22;4094;49.948;11.574;2023-11-22T01:02:48;7.90;65.60
8103;DHT22;4094;49.948;11.574;2023-11-22T01:05:17;7.90;65.60
8103;DHT22;4094;49.948;11.574;2023-11-22T01:07:49;7.90;65.80
8103;DHT22;4094;49.948;11.574;2023-11-22T01:10:18;7.90;65.80
8103;DHT22;4094;49.948;11.574;2023-11-22T01:12:47;7.80;65.80
8103;DHT22;4094;49.948;11.574;2023-11-22T01:15:16;7.80;66.00
8103;DHT22;4094;49.948;11.574;2023-11-22T01:17:45;7.80;65.80
8103;DHT22;4094;49.948;11.574;2023-11-22T01:20:14;7.80;66.00
8103;DHT22;4094;49.948;11.574;2023-11-22T01:22:43;7.80;65.80
8103;DHT22;4094;49.948;11.574;2023-11-22T01:25:14;7.80;65.70
8103;DHT22;4094;49.948;11.574;2023-11-22T01:27:43;7.80;65.60
8103;DHT22;4094;49.948;11.574;2023-11-22T01:30:13;7.80;65.40
8103;DHT22;4094;49.948;11.574;2023-11-22T01:32:42;7.80;65.40
8103;DHT22;4094;49.948;11.574;2023-11-22T01:35:12;7.70;65.30
8103;DHT22;4094;49.948;11.574;2023-11-22T01:37:42;7.70;65.40
8103;DHT22;4094;49.948;11.574;2023-11-22T01:40:12;7.70;65.60
8103;DHT22;4094;49.948;11.574;2023-11-22T01:42:42;7.70;65.60
8103;DHT22;4094;49.948;11.574;2023-11-22T01:45:12;7.70;65.50
8103;DHT22;4094;49.948;11.574;2023-11-22T01:47:41;7.70;65.60
8103;DHT22;4094;49.948;11.574;2023-11-22T01:50:12;7.70;65.60
8103;DHT22;4094;49.948;11.574;2023-11-22T01:52:42;7.70;65.70
8103;DHT22;4094;49.948;11.574;2023-11-22T01:55:12;7.80;65.50
8103;DHT22;4094;49.948;11.574;2023-11-22T01:57:45;7.70;65.30
8103;DHT22;4094;49.948;11.574;2023-11-22T02:00:14;7.70;65.50
8103;DHT22;4094;49.948;11.574;2023-11-22T02:02:45;7.70;65.50
8103;DHT22;4094;49.948;11.574;2023-11-22T02:05:14;7.70;65.50
8103;DHT22;4094;49.948;11.574;2023-11-22T02:07:43;7.70;65.40
8103;DHT22;4094;49.948;11.574;2023-11-22T02:10:13;7.70;65.30
8103;DHT22;4094;49.948;11.574;2023-11-22T02:12:42;7.70;65.50
8103;DHT22;4094;49.948;11.574;2023-11-22T02:15:13;7.70;65.50
8103;DHT22;4094;49.948;11.574;2023-11-22T02:17:42;7.70;65.90
8103;DHT22;4094;49.948;11.574;2023-11-22T02:20:11;7.70;65.80
8103;DHT22;4094;49.948;11.574;2023-11-22T02:22:44;7.70;65.60
8103;DHT22;4094;49.948;11.574;2023-11-22T02:25:16;7.70;65.50
8103;DHT22;4094;49.948;11.574;2023-11-22T02:27:45;7.70;65.50
8103;DHT22;4094;49.948;11.574;2023-11-22T02:30:14;7.70;65.60
8103;DHT22;4094;49.948;11.574;2023-11-22T02:32:44;7.70;65.50
8103;DHT22;4094;49.948;11.574;2023-11-22T02:35:13;7.70;65.30
8103;DHT22;4094;49.948;11.574;2023-11-22T02:37:44;7.60;65.30
8103;DHT22;4094;49.948;11.574;2023-11-22T02:40:16;7.60;65.60
8103;DHT22;4094;49.948;11.574;2023-11-22T02:42:47;7.60;65.70
8103;DHT22;4094;49.948;11.574;2023-11-22T02:45:18;7.60;65.70
8103;DHT22;4094;49.948;11.574;2023-11-22T02:47:48;7.50;65.60
8103;DHT22;4094;49.948;11.574;2023-11-22T02:50:17;7.50;65.90
8103;DHT22;4094;49.948;11.574;2023-11-22T02:52:47;7.50;65.90
8103;DHT22;4094;49.948;11.574;2023-11-22T02:55:17;7.50;65.90
8103;DHT22;4094;49.948;11.574;2023-11-22T02:57:47;7.50;65.90
8103;DHT22;4094;49.948;11.574;2023-11-22T03:00:17;7.50;66.20
8103;DHT22;4094;49.948;11.574;2023-11-22T03:02:47;7.50;66.50
8103;DHT22;4094;49.948;11.574;2023-11-22T03:05:22;7.50;66.50
8103;DHT22;4094;49.948;11.574;2023-11-22T03:07:52;7.50;66.30
8103;DHT22;4094;49.948;11.574;2023-11-22T03:10:23;7.50;66.20
8103;DHT22;4094;49.948;11.574;2023-11-22T03:12:52;7.50;66.50
8103;DHT22;4094;49.948;11.574;2023-11-22T03:15:21;7.50;66.50
8103;DHT22;4094;49.948;11.574;2023-11-22T03:17:51;7.50;66.40
8103;DHT22;4094;49.948;11.574;2023-11-22T03:20:20;7.50;66.00
8103;DHT22;4094;49.948;11.574;2023-11-22T03:22:49;7.40;65.90
8103;DHT22;4094;49.948;11.574;2023-11-22T03:25:19;7.40;66.30
8103;DHT22;4094;49.948;11.574;2023-11-22T03:27:50;7.40;66.50
8103;DHT22;4094;49.948;11.574;2023-11-22T03:30:19;7.40;66.30
8103;DHT22;4094;49.948;11.574;2023-11-22T03:32:50;7.40;66.40
8103;DHT22;4094;49.948;11.574;2023-11-22T03:35:19;7.40;66.30
8103;DHT22;4094;49.948;11.574;2023-11-22T03:37:48;7.30;66.10
8103;DHT22;4094;49.948;11.574;2023-11-22T03:40:17;7.30;66.00
8103;DHT22;4094;49.948;11.574;2023-11-22T03:42:49;7.30;65.80
8103;DHT22;4094;49.948;11.574;2023-11-22T03:45:18;7.30;65.60
8103;DHT22;4094;49.948;11.574;2023-11-22T03:47:47;7.20;66.10
8103;DHT22;4094;49.948;11.574;2023-11-22T03:50:17;7.20;65.90
8103;DHT22;4094;49.948;11.574;2023-11-22T03:52:46;7.20;65.90
8103;DHT22;4094;49.948;11.574;2023-11-22T03:55:15;7.20;65.70
8103;DHT22;4094;49.948;11.574;2023-11-22T03:57:45;7.20;65.60
8103;DHT22;4094;49.948;11.574;2023-11-22T04:00:16;7.20;65.50
8103;DHT22;4094;49.948;11.574;2023-11-22T04:02:47;7.20;65.80
8103;DHT22;4094;49.948;11.574;2023-11-22T04:05:16;7.20;65.70
8103;DHT22;4094;49.948;11.574;2023-11-22T04:07:47;7.20;65.30
8103;DHT22;4094;49.948;11.574;2023-11-22T04:10:16;7.20;65.10
8103;DHT22;4094;49.948;11.574;2023-11-22T04:12:45;7.20;64.70
8103;DHT22;4094;49.948;11.574;2023-11-22T04:15:18;7.20;64.70
8103;DHT22;4094;49.948;11.574;2023-11-22T04:17:47;7.20;64.70
8103;DHT22;4094;49.948;11.574;2023-11-22T04:20:17;7.10;64.70
8103;DHT22;4094;49.948;11.574;2023-11-22T04:22:46;7.10;64.80
8103;DHT22;4094;49.948;11.574;2023-11-22T04:25:16;7.10;64.50
8103;DHT22;4094;49.948;11.574;2023-11-22T04:27:46;7.10;64.50
8103;DHT22;4094;49.948;11.574;2023-11-22T04:30:15;7.10;64.50
8103;DHT22;4094;49.948;11.574;2023-11-22T04:32:46;7.10;64.50
8103;DHT22;4094;49.948;11.574;2023-11-22T04:35:16;7.00;64.40
8103;DHT22;4094;49.948;11.574;2023-11-22T04:37:46;7.00;65.40
8103;DHT22;4094;49.948;11.574;2023-11-22T04:40:16;7.00;65.10
8103;DHT22;4094;49.948;11.574;2023-11-22T04:42:45;7.00;65.60
8103;DHT22;4094;49.948;11.574;2023-11-22T04:45:15;7.00;66.00
8103;DHT22;4094;49.948;11.574;2023-11-22T04:47:46;7.00;65.40
8103;DHT22;4094;49.948;11.574;2023-11-22T04:50:15;7.00;65.10
8103;DHT22;4094;49.948;11.574;2023-11-22T04:52:45;7.00;64.70
8103;DHT22;4094;49.948;11.574;2023-11-22T04:55:14;7.00;64.80
8103;DHT22;4094;49.948;11.574;2023-11-22T04:57:43;7.00;64.70
8103;DHT22;4094;49.948;11.574;2023-11-22T05:00:13;7.00;64.70
8103;DHT22;4094;49.948;11.574;2023-11-22T05:02:43;7.00;64.70
8103;DHT22;4094;49.948;11.574;2023-11-22T05:05:14;7.00;64.50
8103;DHT22;4094;49.948;11.574;2023-11-22T05:07:44;6.90;64.70
8103;DHT22;4094;49.948;11.574;2023-11-22T05:10:13;6.90;65.50
8103;DHT22;4094;49.948;11.574;2023-11-22T05:12:42;6.90;65.60
8103;DHT22;4094;49.948;11.574;2023-11-22T05:15:12;6.90;65.00
8103;DHT22;4094;49.948;11.574;2023-11-22T05:17:41;6.90;65.50
8103;DHT22;4094;49.948;11.574;2023-11-22T05:20:10;6.90;65.10
8103;DHT22;4094;49.948;11.574;2023-11-22T05:22:41;6.90;64.90
8103;DHT22;4094;49.948;11.574;2023-11-22T05:25:10;7.00;64.50
8103;DHT22;4094;49.948;11.574;2023-11-22T05:27:39;6.90;64.20
8103;DHT22;4094;49.948;11.574;2023-11-22T05:30:10;6.90;64.20
8103;DHT22;4094;49.948;11.574;2023-11-22T05:32:39;6.90;64.00
8103;DHT22;4094;49.948;11.574;2023-11-22T05:35:09;6.90;64.20
8103;DHT22;4094;49.948;11.574;2023-11-22T05:37:38;6.90;64.90
8103;DHT22;4094;49.948;11.574;2023-11-22T05:40:10;6.90;64.10
8103;DHT22;4094;49.948;11.574;2023-11-22T05:42:39;6.90;64.30
8103;DHT22;4094;49.948;11.574;2023-11-22T05:45:09;6.80;64.10
8103;DHT22;4094;49.948;11.574;2023-11-22T05:47:39;6.80;64.20
8103;DHT22;4094;49.948;11.574;2023-11-22T05:50:09;6.80;64.00
8103;DHT22;4094;49.948;11.574;2023-11-22T05:52:38;6.80;64.00
8103;DHT22;4094;49.948;11.574;2023-11-22T05:55:09;6.80;64.20
8103;DHT22;4094;49.948;11.574;2023-11-22T05:57:42;6.80;64.50
8103;DHT22;4094;49.948;11.574;2023-11-22T06:00:12;6.70;64.50
8103;DHT22;4094;49.948;11.574;2023-11-22T06:02:42;6.70;64.60
8103;DHT22;4094;49.948;11.574;2023-11-22T06:05:12;6.70;64.40
8103;DHT22;4094;49.948;11.574;2023-11-22T06:07:41;6.70;64.60
8103;DHT22;4094;49.948;11.574;2023-11-22T06:10:11;6.70;64.60
8103;DHT22;4094;49.948;11.574;2023-11-22T06:12:42;6.60;64.70
8103;DHT22;4094;49.948;11.574;2023-11-22T06:15:12;6.70;64.90
8103;DHT22;4094;49.948;11.574;2023-11-22T06:17:41;6.60;65.00
8103;DHT22;4094;49.948;11.574;2023-11-22T06:20:12;6.60;65.20
8103;DHT22;4094;49.948;11.574;2023-11-22T06:22:41;6.60;65.20
8103;DHT22;4094;49.948;11.574;2023-11-22T06:25:12;6.60;65.30
8103;DHT22;4094;49.948;11.574;2023-11-22T06:27:41;6.60;65.00
8103;DHT22;4094;49.948;11.574;2023-11-22T06:30:11;6.50;65.00
8103;DHT22;4094;49.948;11.574;2023-11-22T06:32:42;6.50;65.10
8103;DHT22;4094;49.948;11.574;2023-11-22T06:35:12;6.50;65.10
8103;DHT22;4094;49.948;11.574;2023-11-22T06:37:43;6.50;65.20
8103;DHT22;4094;49.948;11.574;2023-11-22T06:40:14;6.50;65.40
8103;DHT22;4094;49.948;11.574;2023-11-22T06:42:45;6.50;65.50
8103;DHT22;4094;49.948;11.574;2023-11-22T06:45:14;6.40;65.30
8103;DHT22;4094;49.948;11.574;2023-11-22T06:47:44;6.40;65.10
8103;DHT22;4094;49.948;11.574;2023-11-22T06:50:13;6.40;65.00
8103;DHT22;4094;49.948;11.574;2023-11-22T06:52:43;6.40;65.00
8103;DHT22;4094;49.948;11.574;2023-11-22T06:55:16;6.40;65.00
8103;DHT22;4094;49.948;11.574;2023-11-22T06:57:45;6.40;64.80
8103;DHT22;4094;49.948;11.574;2023-11-22T07:00:16;6.40;64.70
8103;DHT22;4094;49.948;11.574;2023-11-22T07:02:45;6.40;64.80
8103;DHT22;4094;49.948;11.574;2023-11-22T07:05:15;6.40;64.90
8103;DHT22;4094;49.948;11.574;2023-11-22T07:07:44;6.30;64.60
8103;DHT22;4094;49.948;11.574;2023-11-22T07:10:16;6.40;65.60
8103;DHT22;4094;49.948;11.574;2023-11-22T07:12:48;6.40;65.20
8103;DHT22;4094;49.948;11.574;2023-11-22T07:15:18;6.40;64.90
8103;DHT22;4094;49.948;11.574;2023-11-22T07:17:48;6.40;65.10
8103;DHT22;4094;49.948;11.574;2023-11-22T07:20:18;6.40;64.60
8103;DHT22;4094;49.948;11.574;2023-11-22T07:22:48;6.40;64.40
8103;DHT22;4094;49.948;11.574;2023-11-22T07:25:24;6.40;64.10
8103;DHT22;4094;49.948;11.574;2023-11-22T07:27:54;6.40;63.90
8103;DHT22;4094;49.948;11.574;2023-11-22T07:30:23;6.30;63.70
8103;DHT22;4094;49.948;11.574;2023-11-22T07:32:58;6.30;63.60
8103;DHT22;4094;49.948;11.574;2023-11-22T07:35:29;6.30;63.60
8103;DHT22;4094;49.948;11.574;2023-11-22T07:37:58;6.30;63.90
8103;DHT22;4094;49.948;11.574;2023-11-22T07:40:29;6.30;63.70
8103;DHT22;4094;49.948;11.574;2023-11-22T07:42:58;6.30;63.50
8103;DHT22;4094;49.948;11.574;2023-11-22T07:45:28;6.30;63.50
8103;DHT22;4094;49.948;11.574;2023-11-22T07:47:57;6.30;63.40
8103;DHT22;4094;49.948;11.574;2023-11-22T07:50:28;6.30;63.40
8103;DHT22;4094;49.948;11.574;2023-11-22T07:52:57;6.30;63.50
8103;DHT22;4094;49.948;11.574;2023-11-22T07:55:29;6.30;63.50
8103;DHT22;4094;49.948;11.574;2023-11-22T07:57:58;6.30;63.40
8103;DHT22;4094;49.948;11.574;2023-11-22T08:00:27;6.30;63.50
8103;DHT22;4094;49.948;11.574;2023-11-22T08:02:57;6.30;63.50
8103;DHT22;4094;49.948;11.574;2023-11-22T08:05:29;6.30;63.20
8103;DHT22;4094;49.948;11.574;2023-11-22T08:08:02;6.30;63.10
8103;DHT22;4094;49.948;11.574;2023-11-22T08:10:36;6.30;62.90
8103;DHT22;4094;49.948;11.574;2023-11-22T08:13:05;6.20;63.60
8103;DHT22;4094;49.948;11.574;2023-11-22T08:15:35;6.20;62.80
8103;DHT22;4094;49.948;11.574;2023-11-22T08:18:06;6.30;62.80
8103;DHT22;4094;49.948;11.574;2023-11-22T08:20:35;6.30;62.90
8103;DHT22;4094;49.948;11.574;2023-11-22T08:23:05;6.20;63.00
8103;DHT22;4094;49.948;11.574;2023-11-22T08:25:38;6.20;62.90
8103;DHT22;4094;49.948;11.574;2023-11-22T08:28:10;6.20;63.00
8103;DHT22;4094;49.948;11.574;2023-11-22T08:30:39;6.20;63.10
8103;DHT22;4094;49.948;11.574;2023-11-22T08:33:09;6.30;63.20
8103;DHT22;4094;49.948;11.574;2023-11-22T08:35:38;6.20;62.90
8103;DHT22;4094;49.948;11.574;2023-11-22T08:38:07;6.20;62.90
8103;DHT22;4094;49.948;11.574;2023-11-22T08:40:40;6.20;62.90
8103;DHT22;4094;49.948;11.574;2023-11-22T08:43:09;6.30;64.10
8103;DHT22;4094;49.948;11.574;2023-11-22T08:45:38;6.20;64.10
8103;DHT22;4094;49.948;11.574;2023-11-22T08:48:07;6.20;63.90
8103;DHT22;4094;49.948;11.574;2023-11-22T08:50:37;6.30;63.80
8103;DHT22;4094;49.948;11.574;2023-11-22T08:53:06;6.30;63.70
8103;DHT22;4094;49.948;11.574;2023-11-22T08:55:36;6.30;63.50
8103;DHT22;4094;49.948;11.574;2023-11-22T08:58:07;6.30;63.40
8103;DHT22;4094;49.948;11.574;2023-11-22T09:00:36;6.30;63.60
8103;DHT22;4094;49.948;11.574;2023-11-22T09:03:06;6.30;63.30
8103;DHT22;4094;49.948;11.574;2023-11-22T09:05:35;6.40;63.30
8103;DHT22;4094;49.948;11.574;2023-11-22T09:08:04;6.40;63.40
8103;DHT22;4094;49.948;11.574;2023-11-22T09:10:44;6.40;62.80
8103;DHT22;4094;49.948;11.574;2023-11-22T09:13:14;6.40;62.60
8103;DHT22;4094;49.948;11.574;2023-11-22T09:15:44;6.40;62.80
8103;DHT22;4094;49.948;11.574;2023-11-22T09:18:13;6.50;62.50
8103;DHT22;4094;49.948;11.574;2023-11-22T09:20:42;6.50;62.40
8103;DHT22;4094;49.948;11.574;2023-11-22T09:23:13;6.60;61.60
8103;DHT22;4094;49.948;11.574;2023-11-22T09:25:43;6.60;61.80
8103;DHT22;4094;49.948;11.574;2023-11-22T09:28:12;6.70;61.30
8103;DHT22;4094;49.948;11.574;2023-11-22T09:30:45;6.70;61.10
8103;DHT22;4094;49.948;11.574;2023-11-22T09:33:16;6.80;61.30
8103;DHT22;4094;49.948;11.574;2023-11-22T09:35:47;6.80;61.30
8103;DHT22;4094;49.948;11.574;2023-11-22T09:38:17;6.90;61.00
8103;DHT22;4094;49.948;11.574;2023-11-22T09:40:47;6.90;60.70
8103;DHT22;4094;49.948;11.574;2023-11-22T09:43:19;6.90;60.10
8103;DHT22;4094;49.948;11.574;2023-11-22T09:45:50;6.90;59.90
8103;DHT22;4094;49.948;11.574;2023-11-22T09:48:26;6.90;60.40
8103;DHT22;4094;49.948;11.574;2023-11-22T09:51:00;6.90;59.60
8103;DHT22;4094;49.948;11.574;2023-11-22T09:53:33;6.80;60.40
8103;DHT22;4094;49.948;11.574;2023-11-22T09:56:04;6.80;60.90
8103;DHT22;4094;49.948;11.574;2023-11-22T09:58:35;6.70;60.70
8103;DHT22;4094;49.948;11.574;2023-11-22T10:01:09;6.70;60.70
8103;DHT22;4094;49.948;11.574;2023-11-22T10:03:44;6.70;60.40
8103;DHT22;4094;49.948;11.574;2023-11-22T10:06:14;6.70;60.20
8103;DHT22;4094;49.948;11.574;2023-11-22T10:08:45;6.70;60.00
8103;DHT22;4094;49.948;11.574;2023-11-22T10:11:16;6.70;60.00
8103;DHT22;4094;49.948;11.574;2023-11-22T10:13:47;6.70;60.10
8103;DHT22;4094;49.948;11.574;2023-11-22T10:16:18;6.70;60.50
8103;DHT22;4094;49.948;11.574;2023-11-22T10:18:49;6.70;61.00
8103;DHT22;4094;49.948;11.574;2023-11-22T10:21:20;6.70;60.70
8103;DHT22;4094;49.948;11.574;2023-11-22T10:23:50;6.70;60.70
8103;DHT22;4094;49.948;11.574;2023-11-22T10:26:22;6.80;61.30
8103;DHT22;4094;49.948;11.574;2023-11-22T10:28:51;6.90;61.40
8103;DHT22;4094;49.948;11.574;2023-11-22T10:31:24;7.00;61.20
8103;DHT22;4094;49.948;11.574;2023-11-22T10:33:54;7.20;60.90
8103;DHT22;4094;49.948;11.574;2023-11-22T10:36:25;7.20;60.70
8103;DHT22;4094;49.948;11.574;2023-11-22T10:38:55;7.30;60.20
8103;DHT22;4094;49.948;11.574;2023-11-22T10:41:25;7.30;60.30
8103;DHT22;4094;49.948;11.574;2023-11-22T10:43:55;7.30;59.90
8103;DHT22;4094;49.948;11.574;2023-11-22T10:46:28;7.30;59.70
8103;DHT22;4094;49.948;11.574;2023-11-22T10:48:59;7.20;59.60
8103;DHT22;4094;49.948;11.574;2023-11-22T10:51:31;7.20;60.30
8103;DHT22;4094;49.948;11.574;2023-11-22T10:54:01;7.20;61.20
8103;DHT22;4094;49.948;11.574;2023-11-22T10:56:36;7.10;61.40
8103;DHT22;4094;49.948;11.574;2023-11-22T10:59:10;7.20;61.30
8103;DHT22;4094;49.948;11.574;2023-11-22T11:01:45;7.20;61.10
8103;DHT22;4094;49.948;11.574;2023-11-22T11:04:20;7.30;61.80
8103;DHT22;4094;49.948;11.574;2023-11-22T11:06:55;7.30;61.90
8103;DHT22;4094;49.948;11.574;2023-11-22T11:09:25;7.40;60.80
8103;DHT22;4094;49.948;11.574;2023-11-22T11:12:00;7.40;60.70
8103;DHT22;4094;49.948;11.574;2023-11-22T11:14:33;7.40;60.40
8103;DHT22;4094;49.948;11.574;2023-11-22T11:17:05;7.40;60.60
8103;DHT22;4094;49.948;11.574;2023-11-22T11:19:35;7.40;60.50
8103;DHT22;4094;49.948;11.574;2023-11-22T11:22:07;7.40;61.10
8103;DHT22;4094;49.948;11.574;2023-11-22T11:24:41;7.40;61.10
8103;DHT22;4094;49.948;11.574;2023-11-22T11:27:12;7.30;60.70
8103;DHT22;4094;49.948;11.574;2023-11-22T11:29:42;7.30;60.60
8103;DHT22;4094;49.948;11.574;2023-11-22T11:32:16;7.30;60.60
8103;DHT22;4094;49.948;11.574;2023-11-22T11:35:00;7.30;60.50
8103;DHT22;4094;49.948;11.574;2023-11-22T11:37:32;7.30;61.00
8103;DHT22;4094;49.948;11.574;2023-11-22T11:40:06;7.30;60.50
8103;DHT22;4094;49.948;11.574;2023-11-22T11:42:54;7.20;61.60
8103;DHT22;4094;49.948;11.574;2023-11-22T11:45:24;7.20;60.90
8103;DHT22;4094;49.948;11.574;2023-11-22T11:47:54;7.20;60.60
8103;DHT22;4094;49.948;11.574;2023-11-22T11:50:30;7.20;60.70
8103;DHT22;4094;49.948;11.574;2023-11-22T11:53:04;7.10;60.30
8103;DHT22;4094;49.948;11.574;2023-11-22T11:55:33;7.10;60.20
8103;DHT22;4094;49.948;11.574;2023-11-22T11:58:05;7.00;60.10
8103;DHT22;4094;49.948;11.574;2023-11-22T12:00:37;7.00;60.10
8103;DHT22;4094;49.948;11.574;2023-11-22T12:03:09;7.00;60.20
8103;DHT22;4094;49.948;11.574;2023-11-22T12:05:39;7.00;60.50
8103;DHT22;4094;49.948;11.574;2023-11-22T12:08:09;6.90;60.80
8103;DHT22;4094;49.948;11.574;2023-11-22T12:10:38;6.90;60.80
8103;DHT22;4094;49.948;11.574;2023-11-22T12:13:07;6.80;60.70
8103;DHT22;4094;49.948;11.574;2023-11-22T12:15:36;6.80;61.60
8103;DHT22;4094;49.948;11.574;2023-11-22T12:18:05;6.80;61.70
8103;DHT22;4094;49.948;11.574;2023-11-22T12:20:37;6.80;61.30
8103;DHT22;4094;49.948;11.574;2023-11-22T12:23:07;6.70;61.00
8103;DHT22;4094;49.948;11.574;2023-11-22T12:25:37;6.70;61.10
8103;DHT22;4094;49.948;11.574;2023-11-22T12:28:06;6.60;61.00
8103;DHT22;4094;49.948;11.574;2023-11-22T12:30:37;6.60;60.80
8103;DHT22;4094;49.948;11.574;2023-11-22T12:33:10;6.60;60.90
8103;DHT22;4094;49.948;11.574;2023-11-22T12:35:42;6.50;60.70
8103;DHT22;4094;49.948;11.574;2023-11-22T12:38:13;6.50;60.70
8103;DHT22;4094;49.948;11.574;2023-11-22T12:40:46;6.40;60.90
8103;DHT22;4094;49.948;11.574;2023-11-22T12:43:15;6.40;61.00
8103;DHT22;4094;49.948;11.574;2023-11-22T12:45:44;6.40;61.00
8103;DHT22;4094;49.948;11.574;2023-11-22T12:48:21;6.40;61.20
8103;DHT22;4094;49.948;11.574;2023-11-22T12:50:53;6.40;61.20
8103;DHT22;4094;49.948;11.574;2023-11-22T12:53:23;6.40;61.30
8103;DHT22;4094;49.948;11.574;2023-11-22T12:55:55;6.30;61.20
8103;DHT22;4094;49.948;11.574;2023-11-22T12:58:25;6.40;61.50
8103;DHT22;4094;49.948;11.574;2023-11-22T13:00:56;6.30;61.30
8103;DHT22;4094;49.948;11.574;2023-11-22T13:03:28;6.30;61.30
8103;DHT22;4094;49.948;11.574;2023-11-22T13:05:59;6.30;61.20
8103;DHT22;4094;49.948;11.574;2023-11-22T13:08:29;6.30;61.30
8103;DHT22;4094;49.948;11.574;2023-11-22T13:10:59;6.30;61.30
8103;DHT22;4094;49.948;11.574;2023-11-22T13:13:31;6.30;61.40
8103;DHT22;4094;49.948;11.574;2023-11-22T13:16:04;6.20;61.20
8103;DHT22;4094;49.948;11.574;2023-11-22T13:18:33;6.20;61.00
8103;DHT22;4094;49.948;11.574;2023-11-22T13:21:06;6.20;61.20
8103;DHT22;4094;49.948;11.574;2023-11-22T13:23:35;6.20;61.30
8103;DHT22;4094;49.948;11.574;2023-11-22T13:26:05;6.20;61.50
8103;DHT22;4094;49.948;11.574;2023-11-22T13:28:37;6.20;61.70
8103;DHT22;4094;49.948;11.574;2023-11-22T13:31:06;6.20;61.70
8103;DHT22;4094;49.948;11.574;2023-11-22T13:33:37;6.20;61.60
8103;DHT22;4094;49.948;11.574;2023-11-22T13:36:09;6.20;61.80
8103;DHT22;4094;49.948;11.574;2023-11-22T13:38:40;6.20;61.90
8103;DHT22;4094;49.948;11.574;2023-11-22T13:41:10;6.20;61.90
8103;DHT22;4094;49.948;11.574;2023-11-22T13:43:40;6.20;62.00
8103;DHT22;4094;49.948;11.574;2023-11-22T13:46:09;6.20;61.90
8103;DHT22;4094;49.948;11.574;2023-11-22T13:48:41;6.20;61.80
8103;DHT22;4094;49.948;11.574;2023-11-22T13:51:11;6.20;62.00
8103;DHT22;4094;49.948;11.574;2023-11-22T13:53:41;6.20;61.90
8103;DHT22;4094;49.948;11.574;2023-11-22T13:56:15;6.20;61.80
8103;DHT22;4094;49.948;11.574;2023-11-22T13:58:46;6.20;62.00
8103;DHT22;4094;49.948;11.574;2023-11-22T14:01:15;6.20;61.90
8103;DHT22;4094;49.948;11.574;2023-11-22T14:03:50;6.20;62.10
8103;DHT22;4094;49.948;11.574;2023-11-22T14:06:21;6.20;62.20
8103;DHT22;4094;49.948;11.574;2023-11-22T14:08:51;6.20;62.00
8103;DHT22;4094;49.948;11.574;2023-11-22T14:11:21;6.30;62.10
8103;DHT22;4094;49.948;11.574;2023-11-22T14:13:51;6.30;62.30
8103;DHT22;4094;49.948;11.574;2023-11-22T14:16:20;6.30;61.90
8103;DHT22;4094;49.948;11.574;2023-11-22T14:18:51;6.30;61.40
8103;DHT22;4094;49.948;11.574;2023-11-22T14:21:22;6.30;61.30
8103;DHT22;4094;49.948;11.574;2023-11-22T14:23:52;6.30;61.40
8103;DHT22;4094;49.948;11.574;2023-11-22T14:26:24;6.20;61.40
8103;DHT22;4094;49.948;11.574;2023-11-22T14:28:53;6.20;61.50
8103;DHT22;4094;49.948;11.574;2023-11-22T14:31:22;6.20;61.70
8103;DHT22;4094;49.948;11.574;2023-11-22T14:33:51;6.20;61.50
8103;DHT22;4094;49.948;11.574;2023-11-22T14:36:22;6.20;61.40
8103;DHT22;4094;49.948;11.574;2023-11-22T14:38:51;6.20;61.30
8103;DHT22;4094;49.948;11.574;2023-11-22T14:41:23;6.20;61.50
8103;DHT22;4094;49.948;11.574;2023-11-22T14:43:52;6.20;61.70
8103;DHT22;4094;49.948;11.574;2023-11-22T14:46:21;6.20;61.60
8103;DHT22;4094;49.948;11.574;2023-11-22T14:48:51;6.10;61.50
8103;DHT22;4094;49.948;11.574;2023-11-22T14:51:22;6.10;61.70
8103;DHT22;4094;49.948;11.574;2023-11-22T14:53:51;6.10;61.80
8103;DHT22;4094;49.948;11.574;2023-11-22T14:56:21;6.10;61.40
8103;DHT22;4094;49.948;11.574;2023-11-22T14:58:50;6.10;61.50
8103;DHT22;4094;49.948;11.574;2023-11-22T15:01:21;6.10;61.70
8103;DHT22;4094;49.948;11.574;2023-11-22T15:03:53;6.10;61.60
8103;DHT22;4094;49.948;11.574;2023-11-22T15:06:25;6.10;61.70
8103;DHT22;4094;49.948;11.574;2023-11-22T15:08:54;6.10;61.80
8103;DHT22;4094;49.948;11.574;2023-11-22T15:11:26;6.10;62.60
8103;DHT22;4094;49.948;11.574;2023-11-22T15:13:56;6.10;61.70
8103;DHT22;4094;49.948;11.574;2023-11-22T15:16:25;6.10;61.50
8103;DHT22;4094;49.948;11.574;2023-11-22T15:18:55;6.10;61.60
8103;DHT22;4094;49.948;11.574;2023-11-22T15:21:25;6.10;61.60
8103;DHT22;4094;49.948;11.574;2023-11-22T15:23:55;6.10;61.40
8103;DHT22;4094;49.948;11.574;2023-11-22T15:26:25;6.10;61.40
8103;DHT22;4094;49.948;11.574;2023-11-22T15:28:54;6.10;61.40
8103;DHT22;4094;49.948;11.574;2023-11-22T15:31:24;6.10;61.40
8103;DHT22;4094;49.948;11.574;2023-11-22T15:33:53;6.00;61.40
8103;DHT22;4094;49.948;11.574;2023-11-22T15:36:26;6.00;61.40
8103;DHT22;4094;49.948;11.574;2023-11-22T15:38:55;6.00;61.50
8103;DHT22;4094;49.948;11.574;2023-11-22T15:41:24;6.00;61.50
8103;DHT22;4094;49.948;11.574;2023-11-22T15:43:55;6.00;61.60
8103;DHT22;4094;49.948;11.574;2023-11-22T15:46:24;5.90;61.70
8103;DHT22;4094;49.948;11.574;2023-11-22T15:48:53;5.90;62.00
8103;DHT22;4094;49.948;11.574;2023-11-22T15:51:23;5.90;62.00
8103;DHT22;4094;49.948;11.574;2023-11-22T15:53:54;5.90;62.10
8103;DHT22;4094;49.948;11.574;2023-11-22T15:56:23;5.90;62.10
8103;DHT22;4094;49.948;11.574;2023-11-22T15:58:54;5.90;62.00
8103;DHT22;4094;49.948;11.574;2023-11-22T16:01:28;5.90;62.10
8103;DHT22;4094;49.948;11.574;2023-11-22T16:03:57;6.00;62.20
8103;DHT22;4094;49.948;11.574;2023-11-22T16:06:26;5.90;62.00
8103;DHT22;4094;49.948;11.574;2023-11-22T16:08:57;5.90;62.30
8103;DHT22;4094;49.948;11.574;2023-11-22T16:11:27;5.90;62.10
8103;DHT22;4094;49.948;11.574;2023-11-22T16:13:56;5.90;62.10
8103;DHT22;4094;49.948;11.574;2023-11-22T16:16:25;6.00;62.60
8103;DHT22;4094;49.948;11.574;2023-11-22T16:18:55;6.00;62.60
8103;DHT22;4094;49.948;11.574;2023-11-22T16:21:26;6.00;62.30